Data for 08/12/2015

Time Sea-Level Adjusted Pressure Absolute Pressure Temperature Relative Humidity Dew Point   
(mb) (inHg) (mb) (inHg) (C) (F) (%) (C) (F)
00:05 1021 30.15 850 25.1 21.9 71.3 33 5.2 41.4
00:10 1021 30.15 850 25.1 22 71.6 34 5.5 41.9
00:15 1021 30.15 850 25.1 22 71.5 34 5.7 42.3
00:20 1021 30.15 850 25.1 22 71.7 34 5.6 42.1
00:25 1021 30.15 850 25.1 21.8 71.2 35 5.9 42.6
00:30 1021 30.15 850 25.1 21.3 70.4 37 6.2 43.1
00:35 1021 30.15 850 25.1 21 69.8 39 6.8 44.2
00:40 1021 30.15 850 25.1 21.2 70.1 35 5.3 41.5
00:45 1021 30.15 850 25.1 21.3 70.3 36 5.6 42.1
00:50 1021 30.15 850 25.1 21.1 69.9 37 5.8 42.5
00:55 1021 30.15 850 25.1 20.7 69.3 37 5.8 42.4
01:00 1021 30.15 850 25.1 20.6 69.1 37 5.7 42.3
01:05 1021 30.15 850 25.1 20.5 68.9 38 5.9 42.6
01:10 1021 30.15 850 25.1 20.4 68.7 39 6.3 43.3
01:15 1021 30.15 850 25.1 20.4 68.7 37 5.5 41.8
01:20 1021 30.15 850 25.1 20.8 69.4 36 5.2 41.3
01:25 1021 30.15 850 25.1 20.8 69.4 36 5.5 41.8
01:30 1021 30.15 850 25.1 20.7 69.2 36 5.3 41.5
01:35 1021 30.15 850 25.1 20.6 69.1 37 5.4 41.8
01:40 1021 30.15 850 25.1 20.5 68.9 36 5.3 41.5
01:45 1021 30.15 850 25.1 20.5 68.9 38 5.7 42.3
01:50 1021 30.15 850 25.1 20.5 69 37 5.6 42
01:55 1021 30.15 850 25.1 20.5 68.8 37 5.3 41.6
02:00 1021 30.15 850 25.1 20.3 68.5 37 5.5 41.8
02:05 1021 30.15 850 25.1 20.4 68.8 37 5.3 41.5
02:10 1021 30.15 850 25.1 20.2 68.4 41 6.6 43.8
02:15 1021 30.15 850 25.1 19.4 66.9 43 6.6 43.9
02:20 1021 30.15 850 25.1 19 66.2 43 6.5 43.6
02:25 1021 30.15 850 25.1 19 66.2 42 6.1 42.9
02:30 1021 30.15 850 25.1 19 66.3 42 6.1 42.9
02:35 1021 30.15 850 25.1 19.2 66.6 43 6.3 43.4
02:40 1021 30.15 850 25.1 19.3 66.7 40 5.6 42.1
02:45 1021 30.15 851 25.13 19.4 67 40 5.7 42.3
02:50 1021 30.15 851 25.13 19.7 67.5 42 6.5 43.7
02:55 1021 30.15 851 25.13 19.9 67.9 42 6.7 44
03:00 1022 30.18 851 25.13 19.8 67.7 39 5.6 42.1
03:05 1022 30.18 851 25.13 19.7 67.5 40 5.8 42.4
03:10 1022 30.18 851 25.13 19.6 67.2 40 5.7 42.3
03:15 1022 30.18 851 25.13 19.5 67 41 6 42.9
03:20 1022 30.18 851 25.13 19.3 66.7 45 7.1 44.9
03:25 1022 30.18 851 25.13 19.2 66.5 43 6.3 43.3
03:30 1022 30.18 851 25.13 19 66.2 44 6.6 43.9
03:35 1022 30.18 851 25.13 19 66.2 44 6.6 43.8
03:40 1022 30.18 851 25.13 19.2 66.5 43 6.4 43.5
03:45 1022 30.18 851 25.13 19.4 66.9 41 6 42.7
03:50 1022 30.18 851 25.13 19.4 66.9 42 6.4 43.6
03:55 1022 30.18 851 25.13 19 66.3 43 6.3 43.4
04:00 1022 30.18 851 25.13 18.9 66 43 6.3 43.3
04:05 1022 30.18 851 25.13 18.8 65.9 43 6.1 43
04:10 1022 30.18 851 25.13 18.7 65.7 44 6.2 43.2
04:15 1022 30.18 851 25.13 18.6 65.5 45 6.5 43.7
04:20 1022 30.18 851 25.13 18.7 65.7 44 6.3 43.3
04:25 1022 30.18 851 25.13 19 66.2 39 5 40.9
04:30 1022 30.18 851 25.13 19.8 67.6 40 5.9 42.6
04:35 1022 30.18 851 25.13 19.7 67.4 42 6.7 44
04:40 1022 30.18 851 25.13 19.3 66.7 44 7 44.6
04:45 1022 30.18 851 25.13 19.4 66.9 41 6 42.8
04:50 1022 30.18 851 25.13 19.4 66.8 45 7.1 44.8
04:55 1022 30.18 851 25.13 18.8 65.8 45 6.6 43.9
05:00 1022 30.18 851 25.13 18.7 65.7 42 5.8 42.4
05:05 1022 30.18 851 25.13 19.4 67 39 5.1 41.3
05:10 1022 30.18 851 25.13 20 68 39 5.9 42.6
05:15 1022 30.18 851 25.13 19.9 67.7 41 6.2 43.2
05:20 1022 30.18 851 25.13 19.6 67.2 42 6.4 43.4
05:25 1022 30.18 851 25.13 19.4 67 42 6.4 43.5
05:30 1022 30.18 851 25.13 19.4 66.8 43 6.5 43.7
05:35 1022 30.18 851 25.13 19.3 66.8 42 6.3 43.4
05:40 1022 30.18 851 25.13 19.5 67 42 6.3 43.3
05:45 1022 30.18 851 25.13 19.4 67 43 6.5 43.7
05:50 1022 30.18 851 25.13 19.2 66.5 46 7.3 45.2
05:55 1022 30.18 852 25.16 18.7 65.6 49 7.8 46
06:00 1022 30.18 852 25.16 18.3 64.9 50 7.9 46.1
06:05 1022 30.18 852 25.16 18.1 64.6 52 8.3 47
06:10 1022 30.18 852 25.16 18.4 65 50 7.7 45.9
06:15 1023 30.21 852 25.16 18.5 65.3 51 8.2 46.8
06:20 1023 30.21 852 25.16 18.6 65.6 42 5.8 42.4
06:25 1023 30.21 852 25.16 19.4 66.9 41 5.8 42.4
06:30 1022 30.18 852 25.16 19.7 67.5 39 5.7 42.2
06:35 1022 30.18 852 25.16 19.9 67.8 40 6.1 43
06:40 1022 30.18 852 25.16 19.5 67.1 45 7.3 45.2
06:45 1022 30.18 852 25.16 19.1 66.4 45 6.9 44.5
06:50 1022 30.18 852 25.16 19.2 66.6 46 7.3 45.2
06:55 1023 30.21 852 25.16 19 66.1 48 7.9 46.3
07:00 1023 30.21 852 25.16 18.7 65.7 48 7.8 46
07:05 1023 30.21 852 25.16 18.9 65.9 46 7.3 45.1
07:10 1023 30.21 852 25.16 19.1 66.4 46 7.4 45.3
07:15 1022 30.18 852 25.16 19.2 66.6 45 7.3 45.1
07:20 1022 30.18 852 25.16 19.5 67.1 45 7.4 45.3
07:25 1022 30.18 852 25.16 19.7 67.5 46 7.9 46.2
07:30 1023 30.21 852 25.16 19.8 67.6 45 7.7 45.9
07:35 1023 30.21 852 25.16 20 68.1 46 8.3 46.9
07:40 1023 30.21 852 25.16 20.2 68.3 45 7.9 46.1
07:45 1023 30.21 852 25.16 20.7 69.3 40 6.8 44.3
07:50 1023 30.21 852 25.16 21.1 70.1 45 9 48.2
07:55 1023 30.21 852 25.16 20.9 69.5 47 9.3 48.8
08:00 1023 30.21 852 25.16 20.7 69.3 47 9.1 48.3
08:05 1023 30.21 852 25.16 20.8 69.4 49 9.7 49.5
08:10 1023 30.21 852 25.16 20.5 68.8 51 10.3 50.5
08:15 1023 30.21 852 25.16 20.3 68.5 50 9.6 49.3
08:20 1023 30.21 852 25.16 20.2 68.3 55 11.1 51.9
08:25 1023 30.21 853 25.19 20.1 68.2 54 10.6 51
08:30 1023 30.21 853 25.19 20.4 68.6 49 9.5 49.2
08:35 1024 30.24 853 25.19 20.6 69.1 50 10.1 50.1
08:40 1024 30.24 853 25.19 20.7 69.2 48 9.4 49
08:45 1024 30.24 853 25.19 20.7 69.2 50 10 50
08:50 1024 30.24 853 25.19 20.6 69.1 52 10.6 51
08:55 1024 30.24 853 25.19 20.1 68.2 54 10.8 51.4
09:00 1024 30.24 853 25.19 19.5 67.1 55 10.3 50.5
09:05 1024 30.24 853 25.19 19.1 66.4 60 11.3 52.4
09:10 1024 30.24 853 25.19 18.7 65.7 62 11.4 52.6
09:15 1025 30.27 854 25.22 18.8 65.9 64 12 53.6
09:20 1025 30.27 854 25.22 19 66.1 60 11.2 52.1
09:25 1025 30.27 854 25.22 18.9 66 62 11.5 52.7
09:30 1025 30.27 854 25.22 19 66.2 60 11.1 52.1
09:35 1025 30.27 854 25.22 19.4 66.8 57 10.7 51.2
09:40 1025 30.27 854 25.22 19.6 67.2 63 12.3 54.2
09:45 1025 30.27 854 25.22 19.6 67.3 61 11.9 53.4
09:50 1025 30.27 854 25.22 20.1 68.1 60 12.1 53.7
09:55 1025 30.27 854 25.22 20.2 68.4 56 11.3 52.4
10:00 1025 30.27 854 25.22 20.9 69.6 48 9.7 49.4
10:05 1025 30.27 854 25.22 21.1 70 50 10.5 50.9
10:10 1025 30.27 854 25.22 21.1 70 55 11.8 53.2
10:15 1025 30.27 854 25.22 21.4 70.4 52 11.3 52.4
10:20 1025 30.27 854 25.22 21.9 71.4 50 11 51.8
10:25 1025 30.27 854 25.22 22.1 71.9 44 9.4 48.9
10:30 1025 30.27 854 25.22 22.2 71.9 45 9.8 49.7
10:35 1025 30.27 854 25.22 22.3 72.2 39 7.7 45.8
10:40 1025 30.27 854 25.22 22.5 72.5 35 6.5 43.8
10:45 1025 30.27 854 25.22 22.9 73.3 33 6.2 43.1
10:50 1025 30.27 854 25.22 23.4 74.2 33 6.7 44
10:55 1025 30.27 854 25.22 23.6 74.5 31 5.6 42
11:00 1025 30.27 854 25.22 23.7 74.7 32 6.3 43.3
11:05 1025 30.27 854 25.22 24.1 75.3 31 6 42.8
11:10 1025 30.27 854 25.22 24.4 76 33 7.5 45.5
11:15 1025 30.27 854 25.22 23.9 75 34 7.4 45.3
11:20 1025 30.27 854 25.22 23.7 74.7 34 7.3 45.1
11:25 1025 30.27 854 25.22 23.9 75.1 35 8 46.3
11:30 1025 30.27 854 25.22 24.1 75.4 38 9 48.2
11:35 1025 30.27 854 25.22 24.1 75.4 36 8.2 46.8
11:40 1025 30.27 854 25.22 24.2 75.5 35 8.1 46.6
11:45 1025 30.27 854 25.22 24.4 75.9 35 8.2 46.8
11:50 1025 30.27 854 25.22 24 75.2 37 8.5 47.3
11:55 1024 30.24 854 25.22 24.1 75.4 36 8.2 46.8
12:00 1024 30.24 854 25.22 24 75.2 37 8.5 47.3
12:05 1024 30.24 854 25.22 24.1 75.3 38 8.9 48.1
12:10 1024 30.24 854 25.22 24.6 76.2 35 8.1 46.6
12:15 1024 30.24 854 25.22 24.7 76.5 32 7.2 45
12:20 1024 30.24 854 25.22 24.3 75.8 32 7 44.5
12:25 1024 30.24 854 25.22 24.3 75.7 36 8.3 46.9
12:30 1024 30.24 854 25.22 25 77 32 7.5 45.5
12:35 1024 30.24 853 25.19 25.8 78.4 29 6.9 44.4
12:40 1024 30.24 853 25.19 26.7 80.1 28 6.8 44.3
12:45 1024 30.24 853 25.19 26.9 80.5 29 7.6 45.6
12:50 1024 30.24 853 25.19 26.8 80.2 30 7.9 46.2
12:55 1024 30.24 853 25.19 25.9 78.6 30 7.2 45
13:00 1024 30.24 853 25.19 25.8 78.4 30 7 44.5
13:05 1024 30.24 853 25.19 25.7 78.2 30 7 44.5
13:10 1024 30.24 853 25.19 26.2 79.1 30 7.3 45.2
13:15 1024 30.24 853 25.19 27.2 80.9 28 7.2 44.9
13:20 1024 30.24 853 25.19 27.4 81.3 28 7.6 45.8
13:25 1024 30.24 853 25.19 27.4 81.4 28 7.7 45.8
13:30 1024 30.24 853 25.19 27.3 81.1 28 7.7 45.9
13:35 1024 30.24 853 25.19 26.5 79.6 29 7.3 45.2
13:40 1024 30.24 853 25.19 26.9 80.5 28 7 44.6
13:45 1024 30.24 853 25.19 27.1 80.8 29 7.8 46
13:50 1024 30.24 853 25.19 27.2 80.9 28 7.3 45.2
13:55 1024 30.24 853 25.19 27.7 81.9 28 7.7 45.8
14:00 1024 30.24 853 25.19 28 82.5 27 7.8 46
14:05 1023 30.21 853 25.19 27.9 82.3 29 8.7 47.7
14:10 1023 30.21 853 25.19 27.7 81.8 27 7.3 45.2
14:15 1023 30.21 852 25.16 28.1 82.5 28 8 46.5
14:20 1023 30.21 852 25.16 28.2 82.8 27 8 46.4
14:25 1023 30.21 852 25.16 28.9 83.9 26 7.7 45.9
14:30 1023 30.21 852 25.16 29.2 84.5 26 8.1 46.5
14:35 1023 30.21 852 25.16 29 84.2 26 7.8 46
14:40 1023 30.21 852 25.16 28.9 84.1 25 7.5 45.4
14:45 1023 30.21 852 25.16 29.3 84.7 25 7.8 46
14:50 1023 30.21 852 25.16 29.7 85.4 25 8.1 46.6
14:55 1023 30.21 852 25.16 29.6 85.3 26 8.2 46.7
15:00 1023 30.21 852 25.16 29.8 85.7 25 8.1 46.6
15:05 1022 30.18 852 25.16 29.9 85.9 24 7.5 45.6
15:10 1022 30.18 852 25.16 31 87.9 24 8.3 46.9
15:15 1022 30.18 852 25.16 30.8 87.4 25 8.8 47.8
15:20 1022 30.18 852 25.16 30.7 87.2 24 8.3 46.9
15:25 1022 30.18 851 25.13 30.2 86.3 25 8.1 46.6
15:30 1022 30.18 851 25.13 30.1 86.1 24 7.6 45.6
15:35 1022 30.18 851 25.13 30.5 87 24 8 46.4
15:40 1022 30.18 851 25.13 30.3 86.6 25 8.2 46.8
15:45 1022 30.18 851 25.13 29.8 85.6 26 8.5 47.3
15:50 1022 30.18 851 25.13 29.4 84.8 26 8 46.4
15:55 1022 30.18 851 25.13 29.3 84.7 25 7.8 46.1
16:00 1022 30.18 851 25.13 29.2 84.6 25 7.8 46
16:05 1022 30.18 851 25.13 29.4 85 25 7.5 45.5
16:10 1022 30.18 851 25.13 30.1 86.3 24 7.9 46.3
16:15 1022 30.18 851 25.13 29.7 85.4 25 7.8 46.1
16:20 1022 30.18 851 25.13 29.3 84.8 26 8.3 46.9
16:25 1022 30.18 851 25.13 29 84.2 26 7.7 45.8
16:30 1022 30.18 851 25.13 29.1 84.4 27 8.6 47.5
16:35 1022 30.18 851 25.13 29.1 84.4 27 8.3 46.9
16:40 1022 30.18 851 25.13 29.1 84.4 26 7.8 46
16:45 1022 30.18 851 25.13 29.3 84.8 25 7.5 45.5
16:50 1021 30.15 851 25.13 29.7 85.5 26 8.3 46.9
16:55 1021 30.15 851 25.13 30.3 86.5 24 7.9 46.3
17:00 1021 30.15 851 25.13 29.9 85.8 27 9 48.3
17:05 1021 30.15 850 25.1 29.3 84.7 28 9.1 48.4
17:10 1021 30.15 850 25.1 28.7 83.7 29 9.1 48.4
17:15 1021 30.15 850 25.1 28.4 83.1 29 9 48.2
17:20 1021 30.15 850 25.1 28.2 82.8 29 8.9 48
17:25 1021 30.15 850 25.1 28.2 82.7 31 9.9 49.8
17:30 1021 30.15 850 25.1 28.2 82.7 30 9.4 48.9
17:35 1021 30.15 851 25.13 28.3 83 32 10.2 50.4
17:40 1021 30.15 851 25.13 28.4 83.2 32 10.3 50.5
17:45 1021 30.15 850 25.1 28.6 83.4 31 10.3 50.5
17:50 1021 30.15 850 25.1 28.4 83 32 10.4 50.7
17:55 1021 30.15 850 25.1 28.2 82.8 33 10.8 51.4
18:00 1021 30.15 851 25.13 27.9 82.3 35 11.3 52.4
18:05 1021 30.15 851 25.13 27 80.6 40 12.4 54.2
18:10 1022 30.18 851 25.13 26.4 79.6 40 11.9 53.3
18:15 1022 30.18 851 25.13 26 78.9 39 11.1 52
18:20 1022 30.18 851 25.13 25.8 78.4 34 9.2 48.5
18:25 1022 30.18 851 25.13 25.5 77.8 31 7.5 45.5
18:30 1022 30.18 851 25.13 25.3 77.6 30 6.8 44.3
18:35 1022 30.18 851 25.13 25.4 77.8 28 6 42.8
18:40 1022 30.18 851 25.13 25.3 77.6 28 6 42.8
18:45 1022 30.18 851 25.13 25.1 77.2 30 6.4 43.5
18:50 1022 30.18 851 25.13 24.8 76.7 31 6.7 44
18:55 1022 30.18 851 25.13 24.9 76.9 30 6.3 43.3
19:00 1022 30.18 851 25.13 24.9 76.8 32 7.1 44.8
19:05 1022 30.18 852 25.16 24.4 76 33 7.3 45.2
19:10 1023 30.21 852 25.16 24.2 75.5 35 8.1 46.6
19:15 1023 30.21 852 25.16 23.7 74.6 36 7.9 46.2
19:20 1023 30.21 853 25.19 23.4 74.1 42 9.8 49.6
19:25 1024 30.24 853 25.19 22.3 72.1 56 13.2 55.7
19:30 1025 30.27 854 25.22 19.6 67.3 66 13.2 55.7
19:35 1026 30.3 855 25.25 18.9 66.1 63 11.8 53.2
19:40 1026 30.3 855 25.25 19.1 66.4 60 11.3 52.4
19:45 1026 30.3 855 25.25 19.2 66.6 65 12.5 54.4
19:50 1027 30.33 856 25.28 18.5 65.2 71 13.3 55.9
19:55 1027 30.33 856 25.28 17.4 63.3 73 12.6 54.7
20:00 1027 30.33 856 25.28 17 62.7 75 12.7 54.8
20:05 1027 30.33 856 25.28 17 62.6 72 12 53.6
20:10 1027 30.33 856 25.28 17.1 62.9 74 12.5 54.5
20:15 1027 30.33 857 25.31 17 62.5 82 13.9 57
20:20 1027 30.33 856 25.28 16.3 61.3 84 13.6 56.4
20:25 1027 30.33 856 25.28 15.8 60.4 85 13.3 55.9
20:30 1027 30.33 856 25.28 15.4 59.8 87 13.3 55.9
20:35 1027 30.33 856 25.28 15.3 59.6 87 13.3 55.9
20:40 1026 30.3 855 25.25 15.3 59.5 87 13.1 55.6
20:45 1026 30.3 855 25.25 15.2 59.3 87 13 55.4
20:50 1026 30.3 855 25.25 15.2 59.4 87 13.1 55.5
20:55 1026 30.3 855 25.25 15.2 59.4 87 13.1 55.6
21:00 1026 30.3 855 25.25 15.2 59.4 86 12.9 55.1
21:05 1026 30.3 855 25.25 15.8 60.4 81 12.6 54.7
21:10 1026 30.3 855 25.25 16.1 61 79 12.5 54.5
21:15 1026 30.3 855 25.25 16.3 61.4 75 11.9 53.3
21:20 1026 30.3 855 25.25 16.6 61.8 73 11.8 53.2
21:25 1026 30.3 855 25.25 16.7 62.1 73 11.9 53.4
21:30 1025 30.27 855 25.25 16.8 62.2 73 12 53.6
21:35 1025 30.27 855 25.25 16.7 62.1 74 12.2 53.9
21:40 1025 30.27 855 25.25 16.6 61.9 74 11.9 53.5
21:45 1025 30.27 855 25.25 16.7 62 74 12.2 53.9
21:50 1025 30.27 855 25.25 16.7 62 73 11.8 53.2
21:55 1025 30.27 855 25.25 16.8 62.2 73 11.9 53.4
22:00 1025 30.27 854 25.22 16.6 61.8 74 11.9 53.4
22:05 1025 30.27 854 25.22 16.4 61.6 75 12 53.6
22:10 1025 30.27 854 25.22 16.3 61.4 73 11.5 52.8
22:15 1025 30.27 854 25.22 16.6 61.9 72 11.5 52.7
22:20 1025 30.27 854 25.22 16.6 61.9 72 11.6 52.8
22:25 1025 30.27 854 25.22 16.4 61.6 74 11.9 53.4
22:30 1025 30.27 854 25.22 16.3 61.3 73 11.4 52.5
22:35 1025 30.27 854 25.22 16.4 61.5 72 11.4 52.5
22:40 1025 30.27 854 25.22 16.6 61.8 71 11.2 52.2
22:45 1025 30.27 854 25.22 16.6 62 71 11.3 52.4
22:50 1025 30.27 854 25.22 16.6 61.9 71 11.4 52.5
22:55 1025 30.27 854 25.22 16.6 61.9 71 11.5 52.6
23:00 1025 30.27 854 25.22 16.5 61.6 70 11.1 52
23:05 1025 30.27 854 25.22 16.6 62 69 11.1 51.9
23:10 1025 30.27 854 25.22 16.8 62.3 68 11 51.8
23:15 1025 30.27 854 25.22 16.9 62.4 68 11 51.8
23:20 1025 30.27 854 25.22 16.9 62.4 67 10.9 51.5
23:25 1025 30.27 854 25.22 17 62.7 67 11 51.7
23:30 1025 30.27 854 25.22 16.9 62.4 68 11 51.8
23:35 1025 30.27 854 25.22 16.7 62.1 69 11.1 51.9
23:40 1025 30.27 854 25.22 16.6 61.9 69 11 51.8
23:45 1025 30.27 854 25.22 16.5 61.7 70 11.1 51.9
23:50 1025 30.27 854 25.22 16.4 61.5 70 11 51.7
23:55 1025 30.27 854 25.22 16.6 61.8 68 10.7 51.3
24:00 1025 30.27 854 25.22 16.7 62.1 67 10.6 51.1